createdAt,value
2024-01-28T00:03:00.608Z,61.70
2024-01-28T00:08:05.755Z,61.66
2024-01-28T00:13:09.504Z,61.59
2024-01-28T00:18:14.673Z,61.50
2024-01-28T00:23:18.722Z,61.18
2024-01-28T00:28:22.398Z,61.60
2024-01-28T00:33:27.734Z,61.50
2024-01-28T00:38:32.866Z,61.74
2024-01-28T00:43:36.859Z,61.16
2024-01-28T00:48:42.317Z,61.50
2024-01-28T00:53:46.357Z,61.65
2024-01-28T00:58:50.137Z,61.85
2024-01-28T01:03:55.341Z,61.55
2024-01-28T01:08:59.545Z,62.23
2024-01-28T01:14:05.188Z,62.08
2024-01-28T01:19:10.308Z,62.49
2024-01-28T01:24:14.156Z,62.44
2024-01-28T01:29:17.861Z,62.63
2024-01-28T01:34:23.068Z,62.29
2024-01-28T01:39:27.078Z,61.96
2024-01-28T01:44:31.061Z,62.08
2024-01-28T01:49:36.866Z,62.34
2024-01-28T01:54:40.944Z,62.00
2024-01-28T01:59:45.776Z,62.05
2024-01-28T02:04:52.081Z,62.21
2024-01-28T02:09:55.844Z,62.27
2024-01-28T02:15:06.149Z,62.17
2024-01-28T02:20:13.064Z,62.68
2024-01-28T02:25:18.318Z,62.76
2024-01-28T02:30:22.116Z,62.69
2024-01-28T02:35:26.919Z,62.70
2024-01-28T02:40:32.998Z,63.12
2024-01-28T02:45:37.067Z,62.83
2024-01-28T02:50:40.992Z,63.21
2024-01-28T02:55:46.256Z,63.67
2024-01-28T03:00:50.220Z,63.96
2024-01-28T03:05:54.078Z,63.42
2024-01-28T03:11:00.063Z,63.34
2024-01-28T03:16:04.905Z,63.69
2024-01-28T03:21:08.668Z,63.85
2024-01-28T03:26:14.228Z,64.41
2024-01-28T03:31:19.495Z,64.48
2024-01-28T03:36:23.507Z,64.35
2024-01-28T03:41:28.900Z,64.22
2024-01-28T03:46:32.609Z,63.77
2024-01-28T03:52:26.080Z,63.31
2024-01-28T03:57:31.564Z,63.66
2024-01-28T04:02:35.291Z,63.92
2024-01-28T04:07:39.389Z,64.01
2024-01-28T04:12:44.690Z,63.95
2024-01-28T04:17:48.702Z,64.40
2024-01-28T04:22:52.753Z,64.31
2024-01-28T04:27:58.070Z,63.92
2024-01-28T04:33:02.058Z,64.25
2024-01-28T04:38:06.211Z,64.24
2024-01-28T04:43:11.971Z,64.34
2024-01-28T04:48:17.154Z,64.82
2024-01-28T04:53:21.013Z,64.85
2024-01-28T04:58:26.169Z,65.24
2024-01-28T05:03:30.034Z,65.32
2024-01-28T05:08:33.954Z,65.20
2024-01-28T05:13:39.023Z,65.08
2024-01-28T05:18:42.876Z,64.57
2024-01-28T05:23:46.996Z,64.96
2024-01-28T05:28:52.266Z,65.09
2024-01-28T05:33:56.277Z,65.53
2024-01-28T05:39:00.328Z,65.51
2024-01-28T05:44:06.047Z,65.23
2024-01-28T05:49:12.660Z,64.86
2024-01-28T05:54:17.018Z,65.43
2024-01-28T05:59:22.290Z,65.78
2024-01-28T06:04:26.170Z,65.34
2024-01-28T06:09:29.938Z,65.32
2024-01-28T06:14:35.271Z,66.07
2024-01-28T06:19:39.019Z,65.80
2024-01-28T06:24:43.963Z,65.95
2024-01-28T06:29:49.310Z,66.06
2024-01-28T06:34:53.930Z,65.70
2024-01-28T06:39:58.013Z,65.13
2024-01-28T06:45:09.231Z,65.66
2024-01-28T06:50:13.276Z,65.73
2024-01-28T06:55:17.339Z,66.52
2024-01-28T07:00:23.176Z,66.53
2024-01-28T07:05:27.527Z,66.22
2024-01-28T07:10:31.482Z,66.00
2024-01-28T07:15:37.225Z,66.29
2024-01-28T07:20:41.358Z,66.13
2024-01-28T07:25:45.188Z,66.13
2024-01-28T07:30:50.515Z,66.37
2024-01-28T07:35:54.850Z,66.43
2024-01-28T07:41:03.700Z,66.31
2024-01-28T07:46:10.684Z,66.85
2024-01-28T07:51:14.700Z,66.90
2024-01-28T07:56:19.038Z,66.73
2024-01-28T08:01:24.526Z,66.99
2024-01-28T08:06:29.159Z,67.09
2024-01-28T08:11:33.125Z,66.80
2024-01-28T08:16:38.577Z,66.97
2024-01-28T08:21:44.458Z,66.89
2024-01-28T08:26:48.824Z,67.65
2024-01-28T08:31:54.282Z,67.02
2024-01-28T08:36:58.234Z,67.90
2024-01-28T08:42:02.168Z,67.96
2024-01-28T08:47:08.119Z,67.65
2024-01-28T08:52:12.881Z,67.03
2024-01-28T08:57:16.866Z,67.98
2024-01-28T09:02:23.395Z,67.64
2024-01-28T09:07:53.078Z,67.21
2024-01-28T09:12:57.413Z,67.52
2024-01-28T09:18:03.746Z,67.45
2024-01-28T09:23:07.623Z,67.03
2024-01-28T09:28:11.735Z,66.62
2024-01-28T09:33:17.222Z,67.22
2024-01-28T09:38:21.527Z,67.31
2024-01-28T09:43:30.806Z,67.61
2024-01-28T09:48:37.364Z,66.85
2024-01-28T09:53:44.061Z,66.77
2024-01-28T09:58:48.619Z,66.58
2024-01-28T10:03:54.428Z,66.22
2024-01-28T10:08:58.625Z,65.95
2024-01-28T10:14:02.680Z,66.65
2024-01-28T10:19:08.404Z,65.46
2024-01-28T10:24:13.533Z,65.74
2024-01-28T10:29:18.977Z,65.34
2024-01-28T10:34:24.638Z,64.26
2024-01-28T10:39:33.990Z,64.13
2024-01-28T10:44:46.185Z,64.08
2024-01-28T10:55:31.556Z,61.30
2024-01-28T11:00:37.064Z,60.26
2024-01-28T11:05:42.668Z,60.88
2024-01-28T11:10:46.435Z,59.92
2024-01-28T11:15:50.418Z,59.86
2024-01-28T11:20:55.952Z,58.65
2024-01-28T11:26:01.556Z,57.57
2024-01-28T11:31:05.931Z,57.73
2024-01-28T11:36:12.064Z,56.72
2024-01-28T11:41:19.547Z,55.77
2024-01-28T11:46:24.186Z,55.41
2024-01-28T11:51:32.851Z,54.69
2024-01-28T11:56:40.047Z,53.50
2024-01-28T12:01:45.670Z,53.72
2024-01-28T12:06:51.245Z,53.28
2024-01-28T12:11:55.411Z,52.06
2024-01-28T12:17:00.330Z,52.70
2024-01-28T12:22:05.934Z,52.25
2024-01-28T12:27:10.451Z,52.89
2024-01-28T12:32:14.631Z,51.65
2024-01-28T12:37:23.103Z,51.04
2024-01-28T12:42:28.636Z,51.09
2024-01-28T12:47:32.598Z,49.18
2024-01-28T12:52:38.473Z,49.52
2024-01-28T12:57:43.830Z,46.76
2024-01-28T13:02:48.014Z,46.08
2024-01-28T13:07:53.850Z,45.81
2024-01-28T13:12:58.084Z,44.08
2024-01-28T13:18:02.296Z,43.81
2024-01-28T13:23:07.680Z,44.84
2024-01-28T13:28:12.058Z,44.70
2024-01-28T13:33:16.226Z,44.89
2024-01-28T13:38:22.019Z,45.21
2024-01-28T13:43:26.067Z,43.13
2024-01-28T13:48:31.035Z,43.78
2024-01-28T13:53:37.962Z,41.72
2024-01-28T13:58:42.187Z,41.59
2024-01-28T14:03:46.132Z,43.36
2024-01-28T14:08:51.819Z,42.67
2024-01-28T14:13:55.908Z,41.84
2024-01-28T14:19:02.334Z,41.80
2024-01-28T14:24:08.554Z,42.00
2024-01-28T14:29:12.598Z,41.71
2024-01-28T14:34:16.765Z,42.23
2024-01-28T14:39:22.657Z,41.84
2024-01-28T14:44:27.257Z,41.84
2024-01-28T14:49:31.943Z,43.24
2024-01-28T14:54:37.644Z,43.30
2024-01-28T14:59:41.857Z,42.44
2024-01-28T15:04:45.750Z,42.96
2024-01-28T15:09:52.520Z,43.22
2024-01-28T15:14:56.493Z,44.04
2024-01-28T15:20:00.724Z,43.12
2024-01-28T15:25:07.539Z,43.51
2024-01-28T15:30:11.919Z,43.43
2024-01-28T15:35:16.201Z,43.88
2024-01-28T15:40:21.647Z,43.28
2024-01-28T15:45:25.438Z,43.23
2024-01-28T15:50:29.286Z,43.79
2024-01-28T15:55:34.802Z,42.89
2024-01-28T16:00:38.807Z,44.10
2024-01-28T16:05:42.825Z,43.84
2024-01-28T16:10:48.152Z,44.24
2024-01-28T16:15:52.362Z,44.61
2024-01-28T16:20:56.325Z,45.35
2024-01-28T16:26:01.867Z,45.75
2024-01-28T16:31:06.054Z,45.12
2024-01-28T16:36:10.138Z,45.79
2024-01-28T16:41:15.357Z,46.80
2024-01-28T16:46:21.691Z,46.61
2024-01-28T16:51:25.646Z,46.87
2024-01-28T16:56:32.637Z,47.33
2024-01-28T17:01:37.330Z,48.35
2024-01-28T17:06:41.268Z,48.20
2024-01-28T17:11:46.607Z,47.32
2024-01-28T17:16:50.670Z,45.80
2024-01-28T17:21:56.188Z,44.35
2024-01-28T17:27:01.958Z,43.94
2024-01-28T17:32:06.304Z,44.15
2024-01-28T17:37:15.489Z,43.23
2024-01-28T17:42:20.640Z,43.37
2024-01-28T17:47:24.578Z,43.25
2024-01-28T17:52:28.562Z,44.59
2024-01-28T17:57:35.805Z,45.88
2024-01-28T18:02:39.867Z,47.36
2024-01-28T18:07:44.776Z,48.21
2024-01-28T18:12:50.129Z,48.78
2024-01-28T18:17:54.010Z,49.23
2024-01-28T18:22:58.200Z,49.04
2024-01-28T18:28:03.641Z,48.93
2024-01-28T18:33:07.894Z,48.83
2024-01-28T18:38:11.835Z,48.73
2024-01-28T18:43:17.086Z,48.87
2024-01-28T18:48:21.674Z,48.77
2024-01-28T18:53:25.693Z,49.17
2024-01-28T18:58:30.942Z,49.49
2024-01-28T19:03:34.880Z,49.33
2024-01-28T19:08:38.884Z,49.48
2024-01-28T19:13:44.244Z,49.75
2024-01-28T19:18:48.788Z,49.45
2024-01-28T19:23:53.001Z,49.57
2024-01-28T19:28:58.286Z,50.05
2024-01-28T19:34:02.330Z,50.12
2024-01-28T19:39:06.454Z,49.98
2024-01-28T19:44:11.858Z,50.20
2024-01-28T19:49:16.166Z,49.61
2024-01-28T19:54:22.319Z,49.77
2024-01-28T19:59:27.781Z,49.41
2024-01-28T20:04:31.644Z,49.38
2024-01-28T20:09:35.593Z,49.40
2024-01-28T20:14:42.892Z,49.79
2024-01-28T20:19:47.002Z,50.21
2024-01-28T20:24:51.051Z,50.29
2024-01-28T20:29:56.167Z,50.00
2024-01-28T20:34:59.950Z,50.38
2024-01-28T20:40:04.214Z,50.19
2024-01-28T20:45:10.244Z,50.59
2024-01-28T20:50:14.227Z,50.97
2024-01-28T20:55:18.432Z,51.05
2024-01-28T21:00:29.051Z,50.86
2024-01-28T21:05:32.806Z,51.17
2024-01-28T21:10:38.663Z,51.38
2024-01-28T21:15:43.981Z,51.62
2024-01-28T21:20:48.106Z,51.73
2024-01-28T21:25:52.184Z,51.53
2024-01-28T21:30:57.990Z,51.86
2024-01-28T21:36:01.942Z,52.13
2024-01-28T21:41:05.936Z,52.28
2024-01-28T21:46:11.202Z,52.27
2024-01-28T21:51:15.403Z,52.24
2024-01-28T21:56:25.859Z,52.59
2024-01-28T22:01:31.271Z,52.81
2024-01-28T22:06:35.258Z,53.24
2024-01-28T22:11:40.775Z,53.36
2024-01-28T22:16:47.052Z,53.71
2024-01-28T22:21:50.795Z,54.14
2024-01-28T22:26:54.702Z,54.21
2024-01-28T22:31:59.735Z,54.18
2024-01-28T22:37:03.836Z,54.47
2024-01-28T22:42:08.221Z,54.46
2024-01-28T22:47:15.987Z,54.74
2024-01-28T22:52:19.745Z,54.79
2024-01-28T22:57:23.550Z,55.05
2024-01-28T23:02:29.760Z,55.15
2024-01-28T23:07:33.394Z,55.29
2024-01-28T23:12:37.311Z,55.65
2024-01-28T23:17:42.585Z,55.67
2024-01-28T23:22:46.458Z,56.13
2024-01-28T23:27:50.513Z,56.08
2024-01-28T23:32:55.824Z,55.99
2024-01-28T23:37:59.529Z,56.19
2024-01-28T23:43:03.673Z,56.50
2024-01-28T23:48:09.428Z,56.44
2024-01-28T23:53:13.793Z,56.83
2024-01-28T23:58:17.590Z,57.20
